sensor_id;sensor_type;location;lat;lon;timestamp;temperature;humidity
10123;DHT22;5101;49.038;8.710;2022-08-07T00:00:21;16.60;63.30
10123;DHT22;5101;49.038;8.710;2022-08-07T00:02:47;16.60;63.50
10123;DHT22;5101;49.038;8.710;2022-08-07T00:05:12;16.50;63.30
10123;DHT22;5101;49.038;8.710;2022-08-07T00:07:38;16.50;63.50
10123;DHT22;5101;49.038;8.710;2022-08-07T00:10:04;16.30;63.90
10123;DHT22;5101;49.038;8.710;2022-08-07T00:12:30;16.30;64.40
10123;DHT22;5101;49.038;8.710;2022-08-07T00:14:56;16.20;64.60
10123;DHT22;5101;49.038;8.710;2022-08-07T00:17:21;16.20;64.50
10123;DHT22;5101;49.038;8.710;2022-08-07T00:19:47;16.20;64.70
10123;DHT22;5101;49.038;8.710;2022-08-07T00:22:12;16.20;65.30
10123;DHT22;5101;49.038;8.710;2022-08-07T00:24:38;16.10;65.90
10123;DHT22;5101;49.038;8.710;2022-08-07T00:27:04;16.10;65.80
10123;DHT22;5101;49.038;8.710;2022-08-07T00:29:30;16.10;65.70
10123;DHT22;5101;49.038;8.710;2022-08-07T00:31:55;16.10;66.20
10123;DHT22;5101;49.038;8.710;2022-08-07T00:34:27;16.10;67.10
10123;DHT22;5101;49.038;8.710;2022-08-07T00:36:53;16.00;68.00
10123;DHT22;5101;49.038;8.710;2022-08-07T00:39:19;16.00;68.30
10123;DHT22;5101;49.038;8.710;2022-08-07T00:41:49;16.00;68.40
10123;DHT22;5101;49.038;8.710;2022-08-07T00:44:15;15.90;68.90
10123;DHT22;5101;49.038;8.710;2022-08-07T00:46:41;15.90;68.80
10123;DHT22;5101;49.038;8.710;2022-08-07T00:49:06;15.90;69.00
10123;DHT22;5101;49.038;8.710;2022-08-07T00:51:34;15.90;69.40
10123;DHT22;5101;49.038;8.710;2022-08-07T00:53:59;15.80;69.90
10123;DHT22;5101;49.038;8.710;2022-08-07T00:56:25;15.80;69.70
10123;DHT22;5101;49.038;8.710;2022-08-07T00:58:51;15.80;69.00
10123;DHT22;5101;49.038;8.710;2022-08-07T01:01:17;15.80;68.90
10123;DHT22;5101;49.038;8.710;2022-08-07T01:03:44;15.80;69.10
10123;DHT22;5101;49.038;8.710;2022-08-07T01:06:10;15.70;69.20
10123;DHT22;5101;49.038;8.710;2022-08-07T01:08:36;15.60;69.10
10123;DHT22;5101;49.038;8.710;2022-08-07T01:11:02;15.60;69.50
10123;DHT22;5101;49.038;8.710;2022-08-07T01:13:27;15.60;68.30
10123;DHT22;5101;49.038;8.710;2022-08-07T01:15:54;15.60;68.30
10123;DHT22;5101;49.038;8.710;2022-08-07T01:18:21;15.60;68.70
10123;DHT22;5101;49.038;8.710;2022-08-07T01:21:38;15.60;69.00
10123;DHT22;5101;49.038;8.710;2022-08-07T01:23:41;15.60;69.00
10123;DHT22;5101;49.038;8.710;2022-08-07T01:26:08;15.60;68.80
10123;DHT22;5101;49.038;8.710;2022-08-07T01:28:34;15.60;69.10
10123;DHT22;5101;49.038;8.710;2022-08-07T01:31:00;15.60;69.70
10123;DHT22;5101;49.038;8.710;2022-08-07T01:33:26;15.60;70.50
10123;DHT22;5101;49.038;8.710;2022-08-07T01:35:52;15.60;70.80
10123;DHT22;5101;49.038;8.710;2022-08-07T01:38:19;15.60;70.60
10123;DHT22;5101;49.038;8.710;2022-08-07T01:40:45;15.60;70.20
10123;DHT22;5101;49.038;8.710;2022-08-07T01:43:12;15.60;70.50
10123;DHT22;5101;49.038;8.710;2022-08-07T01:45:38;15.50;70.70
10123;DHT22;5101;49.038;8.710;2022-08-07T01:48:03;15.50;70.70
10123;DHT22;5101;49.038;8.710;2022-08-07T01:50:29;15.50;70.90
10123;DHT22;5101;49.038;8.710;2022-08-07T01:52:58;15.40;70.70
10123;DHT22;5101;49.038;8.710;2022-08-07T01:55:31;15.40;70.50
10123;DHT22;5101;49.038;8.710;2022-08-07T01:57:59;15.40;70.70
10123;DHT22;5101;49.038;8.710;2022-08-07T02:00:28;15.40;70.50
10123;DHT22;5101;49.038;8.710;2022-08-07T02:03:02;15.30;70.10
10123;DHT22;5101;49.038;8.710;2022-08-07T02:05:37;15.40;70.90
10123;DHT22;5101;49.038;8.710;2022-08-07T02:08:10;15.40;71.30
10123;DHT22;5101;49.038;8.710;2022-08-07T02:10:38;15.40;71.80
10123;DHT22;5101;49.038;8.710;2022-08-07T02:13:05;15.40;72.10
10123;DHT22;5101;49.038;8.710;2022-08-07T02:15:31;15.40;72.30
10123;DHT22;5101;49.038;8.710;2022-08-07T02:17:59;15.40;72.20
10123;DHT22;5101;49.038;8.710;2022-08-07T02:20:26;15.40;72.00
10123;DHT22;5101;49.038;8.710;2022-08-07T02:22:56;15.40;71.50
10123;DHT22;5101;49.038;8.710;2022-08-07T02:25:25;15.40;71.10
10123;DHT22;5101;49.038;8.710;2022-08-07T02:27:51;15.40;71.50
10123;DHT22;5101;49.038;8.710;2022-08-07T02:30:17;15.30;72.20
10123;DHT22;5101;49.038;8.710;2022-08-07T02:32:43;15.30;72.90
10123;DHT22;5101;49.038;8.710;2022-08-07T02:35:10;15.30;73.50
10123;DHT22;5101;49.038;8.710;2022-08-07T02:37:39;15.30;73.40
10123;DHT22;5101;49.038;8.710;2022-08-07T02:40:07;15.20;73.70
10123;DHT22;5101;49.038;8.710;2022-08-07T02:42:33;15.20;73.50
10123;DHT22;5101;49.038;8.710;2022-08-07T02:45:02;15.20;73.50
10123;DHT22;5101;49.038;8.710;2022-08-07T02:47:29;15.10;73.90
10123;DHT22;5101;49.038;8.710;2022-08-07T02:49:54;15.10;74.10
10123;DHT22;5101;49.038;8.710;2022-08-07T02:52:42;15.10;74.00
10123;DHT22;5101;49.038;8.710;2022-08-07T02:55:21;15.10;74.40
10123;DHT22;5101;49.038;8.710;2022-08-07T02:57:47;15.00;74.70
10123;DHT22;5101;49.038;8.710;2022-08-07T03:00:14;15.00;74.90
10123;DHT22;5101;49.038;8.710;2022-08-07T03:02:43;15.00;75.80
10123;DHT22;5101;49.038;8.710;2022-08-07T03:05:10;15.00;76.30
10123;DHT22;5101;49.038;8.710;2022-08-07T03:07:36;14.90;76.30
10123;DHT22;5101;49.038;8.710;2022-08-07T03:10:03;14.90;76.80
10123;DHT22;5101;49.038;8.710;2022-08-07T03:12:29;14.90;77.40
10123;DHT22;5101;49.038;8.710;2022-08-07T03:14:57;14.80;77.50
10123;DHT22;5101;49.038;8.710;2022-08-07T03:17:23;14.80;77.70
10123;DHT22;5101;49.038;8.710;2022-08-07T03:19:49;14.80;77.90
10123;DHT22;5101;49.038;8.710;2022-08-07T03:22:15;14.80;77.90
10123;DHT22;5101;49.038;8.710;2022-08-07T03:24:41;14.80;77.80
10123;DHT22;5101;49.038;8.710;2022-08-07T03:27:08;14.80;78.10
10123;DHT22;5101;49.038;8.710;2022-08-07T03:29:38;14.80;78.20
10123;DHT22;5101;49.038;8.710;2022-08-07T03:32:07;14.70;78.20
10123;DHT22;5101;49.038;8.710;2022-08-07T03:34:35;14.70;78.20
10123;DHT22;5101;49.038;8.710;2022-08-07T03:37:03;14.70;78.30
10123;DHT22;5101;49.038;8.710;2022-08-07T03:39:31;14.70;78.50
10123;DHT22;5101;49.038;8.710;2022-08-07T03:41:58;14.60;78.50
10123;DHT22;5101;49.038;8.710;2022-08-07T03:44:25;14.60;78.30
10123;DHT22;5101;49.038;8.710;2022-08-07T03:46:51;14.60;78.70
10123;DHT22;5101;49.038;8.710;2022-08-07T03:49:17;14.60;79.30
10123;DHT22;5101;49.038;8.710;2022-08-07T03:51:42;14.50;79.50
10123;DHT22;5101;49.038;8.710;2022-08-07T03:54:09;14.50;80.00
10123;DHT22;5101;49.038;8.710;2022-08-07T03:56:37;14.50;80.90
10123;DHT22;5101;49.038;8.710;2022-08-07T03:59:04;14.50;81.40
10123;DHT22;5101;49.038;8.710;2022-08-07T04:01:30;14.50;81.20
10123;DHT22;5101;49.038;8.710;2022-08-07T04:03:56;14.40;81.10
10123;DHT22;5101;49.038;8.710;2022-08-07T04:06:22;14.40;80.90
10123;DHT22;5101;49.038;8.710;2022-08-07T04:08:48;14.40;80.90
10123;DHT22;5101;49.038;8.710;2022-08-07T04:11:14;14.40;80.90
10123;DHT22;5101;49.038;8.710;2022-08-07T04:13:40;14.30;80.60
10123;DHT22;5101;49.038;8.710;2022-08-07T04:16:06;14.30;80.70
10123;DHT22;5101;49.038;8.710;2022-08-07T04:18:31;14.30;81.00
10123;DHT22;5101;49.038;8.710;2022-08-07T04:20:57;14.30;80.90
10123;DHT22;5101;49.038;8.710;2022-08-07T04:23:24;14.30;80.90
10123;DHT22;5101;49.038;8.710;2022-08-07T04:25:50;14.30;81.20
10123;DHT22;5101;49.038;8.710;2022-08-07T04:28:17;14.20;81.50
10123;DHT22;5101;49.038;8.710;2022-08-07T04:30:47;14.20;81.90
10123;DHT22;5101;49.038;8.710;2022-08-07T04:33:12;14.20;82.50
10123;DHT22;5101;49.038;8.710;2022-08-07T04:35:39;14.20;82.80
10123;DHT22;5101;49.038;8.710;2022-08-07T04:38:08;14.10;83.10
10123;DHT22;5101;49.038;8.710;2022-08-07T04:40:38;14.10;83.40
10123;DHT22;5101;49.038;8.710;2022-08-07T04:43:04;14.10;83.40
10123;DHT22;5101;49.038;8.710;2022-08-07T04:45:57;14.10;83.00
10123;DHT22;5101;49.038;8.710;2022-08-07T04:49:12;14.10;83.50
10123;DHT22;5101;49.038;8.710;2022-08-07T04:51:49;14.10;83.30
10123;DHT22;5101;49.038;8.710;2022-08-07T05:07:43;14.10;85.50
10123;DHT22;5101;49.038;8.710;2022-08-07T05:10:25;14.20;85.30
10123;DHT22;5101;49.038;8.710;2022-08-07T05:12:59;14.20;85.80
10123;DHT22;5101;49.038;8.710;2022-08-07T05:15:31;14.20;85.90
10123;DHT22;5101;49.038;8.710;2022-08-07T05:18:01;14.20;86.30
10123;DHT22;5101;49.038;8.710;2022-08-07T05:20:33;14.20;86.50
10123;DHT22;5101;49.038;8.710;2022-08-07T05:23:06;14.30;86.60
10123;DHT22;5101;49.038;8.710;2022-08-07T05:25:34;14.30;86.40
10123;DHT22;5101;49.038;8.710;2022-08-07T05:28:01;14.30;86.40
10123;DHT22;5101;49.038;8.710;2022-08-07T05:30:27;14.30;86.60
10123;DHT22;5101;49.038;8.710;2022-08-07T05:32:54;14.30;86.50
10123;DHT22;5101;49.038;8.710;2022-08-07T05:35:21;14.40;86.60
10123;DHT22;5101;49.038;8.710;2022-08-07T05:37:47;14.40;86.40
10123;DHT22;5101;49.038;8.710;2022-08-07T05:40:13;14.40;86.20
10123;DHT22;5101;49.038;8.710;2022-08-07T05:42:39;14.50;85.40
10123;DHT22;5101;49.038;8.710;2022-08-07T05:45:05;14.60;83.90
10123;DHT22;5101;49.038;8.710;2022-08-07T05:47:32;14.70;83.10
10123;DHT22;5101;49.038;8.710;2022-08-07T05:49:59;14.90;82.00
10123;DHT22;5101;49.038;8.710;2022-08-07T05:52:26;15.00;80.70
10123;DHT22;5101;49.038;8.710;2022-08-07T05:54:51;15.10;79.90
10123;DHT22;5101;49.038;8.710;2022-08-07T05:57:17;15.20;79.20
10123;DHT22;5101;49.038;8.710;2022-08-07T05:59:43;15.30;78.50
10123;DHT22;5101;49.038;8.710;2022-08-07T06:02:13;15.40;77.70
10123;DHT22;5101;49.038;8.710;2022-08-07T06:04:48;15.60;76.80
10123;DHT22;5101;49.038;8.710;2022-08-07T06:07:15;15.70;76.00
10123;DHT22;5101;49.038;8.710;2022-08-07T06:09:41;15.80;75.40
10123;DHT22;5101;49.038;8.710;2022-08-07T06:12:08;16.00;74.80
10123;DHT22;5101;49.038;8.710;2022-08-07T06:14:33;16.10;74.70
10123;DHT22;5101;49.038;8.710;2022-08-07T06:17:00;16.20;74.50
10123;DHT22;5101;49.038;8.710;2022-08-07T06:19:27;16.40;73.90
10123;DHT22;5101;49.038;8.710;2022-08-07T06:21:54;16.60;73.60
10123;DHT22;5101;49.038;8.710;2022-08-07T06:24:20;16.90;72.90
10123;DHT22;5101;49.038;8.710;2022-08-07T06:26:46;17.20;72.00
10123;DHT22;5101;49.038;8.710;2022-08-07T06:29:11;17.60;71.00
10123;DHT22;5101;49.038;8.710;2022-08-07T06:31:37;17.90;67.60
10123;DHT22;5101;49.038;8.710;2022-08-07T06:34:02;18.30;67.10
10123;DHT22;5101;49.038;8.710;2022-08-07T06:36:28;18.70;65.90
10123;DHT22;5101;49.038;8.710;2022-08-07T06:38:55;19.00;64.10
10123;DHT22;5101;49.038;8.710;2022-08-07T06:41:41;19.30;62.80
10123;DHT22;5101;49.038;8.710;2022-08-07T06:44:10;19.70;61.00
10123;DHT22;5101;49.038;8.710;2022-08-07T06:46:36;20.00;60.00
10123;DHT22;5101;49.038;8.710;2022-08-07T06:49:02;20.40;59.50
10123;DHT22;5101;49.038;8.710;2022-08-07T06:51:29;20.70;58.40
10123;DHT22;5101;49.038;8.710;2022-08-07T06:53:58;21.00;56.70
10123;DHT22;5101;49.038;8.710;2022-08-07T06:56:28;21.40;55.40
10123;DHT22;5101;49.038;8.710;2022-08-07T06:59:20;21.70;54.00
10123;DHT22;5101;49.038;8.710;2022-08-07T07:01:48;22.00;51.80
10123;DHT22;5101;49.038;8.710;2022-08-07T07:04:15;22.30;51.20
10123;DHT22;5101;49.038;8.710;2022-08-07T07:06:41;22.60;50.40
10123;DHT22;5101;49.038;8.710;2022-08-07T07:09:20;22.70;49.50
10123;DHT22;5101;49.038;8.710;2022-08-07T07:19:54;23.30;46.10
10123;DHT22;5101;49.038;8.710;2022-08-07T07:22:21;23.40;45.50
10123;DHT22;5101;49.038;8.710;2022-08-07T07:24:49;23.60;45.10
10123;DHT22;5101;49.038;8.710;2022-08-07T07:27:16;23.90;44.90
10123;DHT22;5101;49.038;8.710;2022-08-07T07:29:46;24.10;44.30
10123;DHT22;5101;49.038;8.710;2022-08-07T07:32:14;24.30;44.10
10123;DHT22;5101;49.038;8.710;2022-08-07T07:34:44;24.30;43.40
10123;DHT22;5101;49.038;8.710;2022-08-07T07:37:11;24.40;43.10
10123;DHT22;5101;49.038;8.710;2022-08-07T07:39:38;24.40;42.50
10123;DHT22;5101;49.038;8.710;2022-08-07T07:42:05;24.40;42.60
10123;DHT22;5101;49.038;8.710;2022-08-07T07:44:32;24.70;42.80
10123;DHT22;5101;49.038;8.710;2022-08-07T07:47:00;24.80;42.90
10123;DHT22;5101;49.038;8.710;2022-08-07T07:49:27;24.90;42.80
10123;DHT22;5101;49.038;8.710;2022-08-07T07:51:56;25.10;42.80
10123;DHT22;5101;49.038;8.710;2022-08-07T07:54:23;25.30;42.30
10123;DHT22;5101;49.038;8.710;2022-08-07T07:56:51;25.50;42.50
10123;DHT22;5101;49.038;8.710;2022-08-07T07:59:18;25.60;42.20
10123;DHT22;5101;49.038;8.710;2022-08-07T08:01:45;25.80;41.40
10123;DHT22;5101;49.038;8.710;2022-08-07T08:04:13;25.90;40.60
10123;DHT22;5101;49.038;8.710;2022-08-07T08:06:42;25.90;40.20
10123;DHT22;5101;49.038;8.710;2022-08-07T08:09:08;25.90;40.20
10123;DHT22;5101;49.038;8.710;2022-08-07T08:11:35;25.90;40.30
10123;DHT22;5101;49.038;8.710;2022-08-07T08:14:01;26.00;40.20
10123;DHT22;5101;49.038;8.710;2022-08-07T08:16:32;26.20;39.90
10123;DHT22;5101;49.038;8.710;2022-08-07T08:19:01;26.30;39.60
10123;DHT22;5101;49.038;8.710;2022-08-07T08:21:27;26.50;39.60
10123;DHT22;5101;49.038;8.710;2022-08-07T08:24:14;26.60;39.30
10123;DHT22;5101;49.038;8.710;2022-08-07T08:27:00;26.60;39.10
10123;DHT22;5101;49.038;8.710;2022-08-07T08:29:47;26.60;39.20
10123;DHT22;5101;49.038;8.710;2022-08-07T08:32:19;26.80;39.60
10123;DHT22;5101;49.038;8.710;2022-08-07T08:34:46;26.90;39.60
10123;DHT22;5101;49.038;8.710;2022-08-07T08:37:14;26.90;39.40
10123;DHT22;5101;49.038;8.710;2022-08-07T08:39:42;27.10;39.20
10123;DHT22;5101;49.038;8.710;2022-08-07T08:50:19;27.40;37.80
10123;DHT22;5101;49.038;8.710;2022-08-07T08:52:50;27.20;38.20
10123;DHT22;5101;49.038;8.710;2022-08-07T08:55:39;27.30;37.80
10123;DHT22;5101;49.038;8.710;2022-08-07T08:58:34;27.50;37.40
10123;DHT22;5101;49.038;8.710;2022-08-07T09:01:30;27.60;36.60
10123;DHT22;5101;49.038;8.710;2022-08-07T09:04:10;27.60;35.70
10123;DHT22;5101;49.038;8.710;2022-08-07T09:06:54;27.60;35.30
10123;DHT22;5101;49.038;8.710;2022-08-07T09:14:39;27.40;33.60
10123;DHT22;5101;49.038;8.710;2022-08-07T09:20:26;27.60;33.40
10123;DHT22;5101;49.038;8.710;2022-08-07T09:26:00;27.40;33.00
10123;DHT22;5101;49.038;8.710;2022-08-07T09:28:42;27.40;33.40
10123;DHT22;5101;49.038;8.710;2022-08-07T09:31:24;27.50;33.60
10123;DHT22;5101;49.038;8.710;2022-08-07T09:34:21;27.40;33.60
10123;DHT22;5101;49.038;8.710;2022-08-07T09:37:06;27.40;35.00
10123;DHT22;5101;49.038;8.710;2022-08-07T09:39:53;27.20;33.40
10123;DHT22;5101;49.038;8.710;2022-08-07T09:45:43;27.40;33.10
10123;DHT22;5101;49.038;8.710;2022-08-07T09:48:39;27.50;32.80
10123;DHT22;5101;49.038;8.710;2022-08-07T09:54:34;27.60;31.20
10123;DHT22;5101;49.038;8.710;2022-08-07T09:57:48;27.70;30.70
10123;DHT22;5101;49.038;8.710;2022-08-07T10:00:23;27.60;30.40
10123;DHT22;5101;49.038;8.710;2022-08-07T10:08:53;27.70;30.20
10123;DHT22;5101;49.038;8.710;2022-08-07T10:14:27;27.90;30.20
10123;DHT22;5101;49.038;8.710;2022-08-07T10:20:07;27.90;29.90
10123;DHT22;5101;49.038;8.710;2022-08-07T10:26:09;27.90;29.70
10123;DHT22;5101;49.038;8.710;2022-08-07T10:37:35;28.00;29.50
10123;DHT22;5101;49.038;8.710;2022-08-07T10:40:20;28.10;29.50
10123;DHT22;5101;49.038;8.710;2022-08-07T10:42:57;28.40;29.70
10123;DHT22;5101;49.038;8.710;2022-08-07T10:45:28;28.40;29.10
10123;DHT22;5101;49.038;8.710;2022-08-07T10:48:23;28.50;28.70
10123;DHT22;5101;49.038;8.710;2022-08-07T10:50:57;28.60;28.10
10123;DHT22;5101;49.038;8.710;2022-08-07T10:53:35;28.60;27.90
10123;DHT22;5101;49.038;8.710;2022-08-07T10:56:09;28.50;27.70
10123;DHT22;5101;49.038;8.710;2022-08-07T11:01:15;28.50;27.70
10123;DHT22;5101;49.038;8.710;2022-08-07T11:03:54;28.60;27.50
10123;DHT22;5101;49.038;8.710;2022-08-07T11:06:27;28.70;27.40
10123;DHT22;5101;49.038;8.710;2022-08-07T11:09:02;28.80;27.50
10123;DHT22;5101;49.038;8.710;2022-08-07T11:11:42;28.80;26.90
10123;DHT22;5101;49.038;8.710;2022-08-07T11:14:21;28.80;26.50
10123;DHT22;5101;49.038;8.710;2022-08-07T11:16:53;28.90;26.50
10123;DHT22;5101;49.038;8.710;2022-08-07T11:19:43;29.00;26.60
10123;DHT22;5101;49.038;8.710;2022-08-07T11:22:16;29.00;26.40
10123;DHT22;5101;49.038;8.710;2022-08-07T11:30:13;29.00;26.30
10123;DHT22;5101;49.038;8.710;2022-08-07T11:32:47;29.00;26.20
10123;DHT22;5101;49.038;8.710;2022-08-07T11:35:20;28.80;26.20
10123;DHT22;5101;49.038;8.710;2022-08-07T11:38:09;28.90;26.30
10123;DHT22;5101;49.038;8.710;2022-08-07T11:41:04;28.90;25.80
10123;DHT22;5101;49.038;8.710;2022-08-07T11:46:49;28.90;24.90
10123;DHT22;5101;49.038;8.710;2022-08-07T11:57:22;29.50;25.00
10123;DHT22;5101;49.038;8.710;2022-08-07T12:00:14;29.60;25.10
10123;DHT22;5101;49.038;8.710;2022-08-07T12:05:48;29.50;25.00
10123;DHT22;5101;49.038;8.710;2022-08-07T12:08:33;29.50;25.00
10123;DHT22;5101;49.038;8.710;2022-08-07T12:11:26;29.50;24.70
10123;DHT22;5101;49.038;8.710;2022-08-07T12:14:16;29.50;24.70
10123;DHT22;5101;49.038;8.710;2022-08-07T12:16:50;29.60;24.30
10123;DHT22;5101;49.038;8.710;2022-08-07T12:19:36;29.50;24.50
10123;DHT22;5101;49.038;8.710;2022-08-07T12:22:27;29.40;24.30
10123;DHT22;5101;49.038;8.710;2022-08-07T12:27:55;29.20;25.00
10123;DHT22;5101;49.038;8.710;2022-08-07T12:30:28;29.30;25.00
10123;DHT22;5101;49.038;8.710;2022-08-07T12:33:10;29.40;24.70
10123;DHT22;5101;49.038;8.710;2022-08-07T12:35:39;29.30;24.30
10123;DHT22;5101;49.038;8.710;2022-08-07T12:38:06;29.40;24.30
10123;DHT22;5101;49.038;8.710;2022-08-07T12:40:33;29.40;24.10
10123;DHT22;5101;49.038;8.710;2022-08-07T12:43:02;29.20;23.90
10123;DHT22;5101;49.038;8.710;2022-08-07T12:45:36;29.30;24.10
10123;DHT22;5101;49.038;8.710;2022-08-07T12:48:14;29.20;24.00
10123;DHT22;5101;49.038;8.710;2022-08-07T12:50:53;29.10;23.50
10123;DHT22;5101;49.038;8.710;2022-08-07T12:53:43;29.00;23.60
10123;DHT22;5101;49.038;8.710;2022-08-07T12:56:35;29.00;24.10
10123;DHT22;5101;49.038;8.710;2022-08-07T12:59:04;29.00;24.20
10123;DHT22;5101;49.038;8.710;2022-08-07T13:15:48;29.00;24.10
10123;DHT22;5101;49.038;8.710;2022-08-07T13:18:26;28.90;23.80
10123;DHT22;5101;49.038;8.710;2022-08-07T13:21:10;28.90;23.90
10123;DHT22;5101;49.038;8.710;2022-08-07T13:23:49;28.70;23.80
10123;DHT22;5101;49.038;8.710;2022-08-07T13:26:23;28.80;23.90
10123;DHT22;5101;49.038;8.710;2022-08-07T13:29:05;28.80;23.80
10123;DHT22;5101;49.038;8.710;2022-08-07T13:31:51;28.80;23.50
10123;DHT22;5101;49.038;8.710;2022-08-07T13:34:42;28.80;23.70
10123;DHT22;5101;49.038;8.710;2022-08-07T13:40:04;28.70;23.70
10123;DHT22;5101;49.038;8.710;2022-08-07T13:42:32;28.90;23.70
10123;DHT22;5101;49.038;8.710;2022-08-07T13:45:02;28.90;23.50
10123;DHT22;5101;49.038;8.710;2022-08-07T13:47:29;28.90;23.60
10123;DHT22;5101;49.038;8.710;2022-08-07T13:49:58;28.80;23.70
10123;DHT22;5101;49.038;8.710;2022-08-07T13:52:25;28.90;23.90
10123;DHT22;5101;49.038;8.710;2022-08-07T13:54:54;28.90;23.90
10123;DHT22;5101;49.038;8.710;2022-08-07T13:57:24;28.90;24.10
10123;DHT22;5101;49.038;8.710;2022-08-07T13:59:51;28.90;24.00
10123;DHT22;5101;49.038;8.710;2022-08-07T14:02:27;29.00;24.10
10123;DHT22;5101;49.038;8.710;2022-08-07T14:04:56;29.00;23.90
10123;DHT22;5101;49.038;8.710;2022-08-07T14:07:27;29.10;23.80
10123;DHT22;5101;49.038;8.710;2022-08-07T14:09:58;29.00;23.70
10123;DHT22;5101;49.038;8.710;2022-08-07T14:12:48;29.10;24.00
10123;DHT22;5101;49.038;8.710;2022-08-07T14:17:53;29.00;24.20
10123;DHT22;5101;49.038;8.710;2022-08-07T14:20:22;29.00;24.10
10123;DHT22;5101;49.038;8.710;2022-08-07T14:23:02;29.00;23.80
10123;DHT22;5101;49.038;8.710;2022-08-07T14:25:31;28.90;23.50
10123;DHT22;5101;49.038;8.710;2022-08-07T14:27:57;28.80;23.50
10123;DHT22;5101;49.038;8.710;2022-08-07T14:30:29;28.90;23.30
10123;DHT22;5101;49.038;8.710;2022-08-07T14:32:57;28.80;23.00
10123;DHT22;5101;49.038;8.710;2022-08-07T14:35:27;28.80;23.10
10123;DHT22;5101;49.038;8.710;2022-08-07T14:37:55;28.80;23.00
10123;DHT22;5101;49.038;8.710;2022-08-07T14:40:23;28.80;23.10
10123;DHT22;5101;49.038;8.710;2022-08-07T14:45:19;28.70;23.50
10123;DHT22;5101;49.038;8.710;2022-08-07T14:47:45;28.60;23.50
10123;DHT22;5101;49.038;8.710;2022-08-07T14:50:12;28.70;23.80
10123;DHT22;5101;49.038;8.710;2022-08-07T14:52:43;28.80;24.00
10123;DHT22;5101;49.038;8.710;2022-08-07T14:55:11;28.80;24.10
10123;DHT22;5101;49.038;8.710;2022-08-07T14:57:38;28.80;24.20
10123;DHT22;5101;49.038;8.710;2022-08-07T15:00:05;29.00;24.20
10123;DHT22;5101;49.038;8.710;2022-08-07T15:02:33;28.80;23.80
10123;DHT22;5101;49.038;8.710;2022-08-07T15:05:01;28.70;23.80
10123;DHT22;5101;49.038;8.710;2022-08-07T15:07:27;28.60;23.80
10123;DHT22;5101;49.038;8.710;2022-08-07T15:09:55;28.60;23.60
10123;DHT22;5101;49.038;8.710;2022-08-07T15:12:31;28.60;23.50
10123;DHT22;5101;49.038;8.710;2022-08-07T15:15:06;28.60;23.50
10123;DHT22;5101;49.038;8.710;2022-08-07T15:17:38;28.50;23.60
10123;DHT22;5101;49.038;8.710;2022-08-07T15:20:07;28.60;23.70
10123;DHT22;5101;49.038;8.710;2022-08-07T15:22:46;28.60;23.60
10123;DHT22;5101;49.038;8.710;2022-08-07T15:25:14;28.50;23.40
10123;DHT22;5101;49.038;8.710;2022-08-07T15:27:42;28.60;23.50
10123;DHT22;5101;49.038;8.710;2022-08-07T15:30:10;28.60;23.50
10123;DHT22;5101;49.038;8.710;2022-08-07T15:32:41;28.60;23.40
10123;DHT22;5101;49.038;8.710;2022-08-07T15:35:16;28.50;23.60
10123;DHT22;5101;49.038;8.710;2022-08-07T15:37:48;28.40;23.70
10123;DHT22;5101;49.038;8.710;2022-08-07T15:40:16;28.40;23.60
10123;DHT22;5101;49.038;8.710;2022-08-07T15:45:26;28.40;23.70
10123;DHT22;5101;49.038;8.710;2022-08-07T15:47:57;28.30;23.70
10123;DHT22;5101;49.038;8.710;2022-08-07T15:50:34;28.30;23.80
10123;DHT22;5101;49.038;8.710;2022-08-07T15:53:11;28.30;23.70
10123;DHT22;5101;49.038;8.710;2022-08-07T15:55:43;28.20;23.50
10123;DHT22;5101;49.038;8.710;2022-08-07T15:58:10;28.20;23.40
10123;DHT22;5101;49.038;8.710;2022-08-07T16:00:38;28.20;23.50
10123;DHT22;5101;49.038;8.710;2022-08-07T16:05:37;28.10;23.60
10123;DHT22;5101;49.038;8.710;2022-08-07T16:08:09;28.00;23.50
10123;DHT22;5101;49.038;8.710;2022-08-07T16:10:36;28.00;23.20
10123;DHT22;5101;49.038;8.710;2022-08-07T16:15:49;28.00;23.20
10123;DHT22;5101;49.038;8.710;2022-08-07T16:21:02;28.00;23.50
10123;DHT22;5101;49.038;8.710;2022-08-07T16:23:59;28.00;23.70
10123;DHT22;5101;49.038;8.710;2022-08-07T16:32:02;27.90;23.30
10123;DHT22;5101;49.038;8.710;2022-08-07T16:34:47;27.90;23.20
10123;DHT22;5101;49.038;8.710;2022-08-07T16:37:36;27.80;22.90
10123;DHT22;5101;49.038;8.710;2022-08-07T16:40:32;27.80;22.90
10123;DHT22;5101;49.038;8.710;2022-08-07T17:00:17;27.60;23.80
10123;DHT22;5101;49.038;8.710;2022-08-07T17:06:11;27.50;24.00
10123;DHT22;5101;49.038;8.710;2022-08-07T17:09:10;27.50;24.00
10123;DHT22;5101;49.038;8.710;2022-08-07T17:11:52;27.40;24.20
10123;DHT22;5101;49.038;8.710;2022-08-07T17:14:31;27.40;24.10
10123;DHT22;5101;49.038;8.710;2022-08-07T17:17:01;27.40;24.10
10123;DHT22;5101;49.038;8.710;2022-08-07T17:19:33;27.30;24.20
10123;DHT22;5101;49.038;8.710;2022-08-07T17:22:04;27.30;24.20
10123;DHT22;5101;49.038;8.710;2022-08-07T17:27:59;27.20;24.40
10123;DHT22;5101;49.038;8.710;2022-08-07T17:30:31;27.20;24.50
10123;DHT22;5101;49.038;8.710;2022-08-07T17:33:12;27.20;24.60
10123;DHT22;5101;49.038;8.710;2022-08-07T17:35:55;27.20;24.80
10123;DHT22;5101;49.038;8.710;2022-08-07T17:41:08;27.10;24.90
10123;DHT22;5101;49.038;8.710;2022-08-07T17:43:42;27.10;24.80
10123;DHT22;5101;49.038;8.710;2022-08-07T17:46:40;27.10;24.80
10123;DHT22;5101;49.038;8.710;2022-08-07T17:49:20;27.10;25.00
10123;DHT22;5101;49.038;8.710;2022-08-07T17:51:56;27.00;24.80
10123;DHT22;5101;49.038;8.710;2022-08-07T17:54:35;27.00;25.00
10123;DHT22;5101;49.038;8.710;2022-08-07T17:57:18;26.90;25.10
10123;DHT22;5101;49.038;8.710;2022-08-07T17:59:58;26.90;25.30
10123;DHT22;5101;49.038;8.710;2022-08-07T18:05:44;26.80;25.50
10123;DHT22;5101;49.038;8.710;2022-08-07T18:08:24;26.80;25.80
10123;DHT22;5101;49.038;8.710;2022-08-07T18:13:38;26.70;25.80
10123;DHT22;5101;49.038;8.710;2022-08-07T18:16:32;26.70;25.90
10123;DHT22;5101;49.038;8.710;2022-08-07T18:19:20;26.60;26.10
10123;DHT22;5101;49.038;8.710;2022-08-07T18:21:53;26.60;26.30
10123;DHT22;5101;49.038;8.710;2022-08-07T18:24:34;26.60;26.40
10123;DHT22;5101;49.038;8.710;2022-08-07T18:27:18;26.50;26.80
10123;DHT22;5101;49.038;8.710;2022-08-07T18:30:00;26.40;26.80
10123;DHT22;5101;49.038;8.710;2022-08-07T18:35:41;26.30;27.30
10123;DHT22;5101;49.038;8.710;2022-08-07T18:44:46;26.20;28.50
10123;DHT22;5101;49.038;8.710;2022-08-07T18:47:24;26.10;28.40
10123;DHT22;5101;49.038;8.710;2022-08-07T18:58:02;25.70;28.90
10123;DHT22;5101;49.038;8.710;2022-08-07T19:03:16;25.60;29.20
10123;DHT22;5101;49.038;8.710;2022-08-07T19:05:50;25.50;29.00
10123;DHT22;5101;49.038;8.710;2022-08-07T19:08:32;25.40;28.90
10123;DHT22;5101;49.038;8.710;2022-08-07T19:11:06;25.30;28.80
10123;DHT22;5101;49.038;8.710;2022-08-07T19:16:21;25.10;29.70
10123;DHT22;5101;49.038;8.710;2022-08-07T19:23:59;24.90;30.40
10123;DHT22;5101;49.038;8.710;2022-08-07T19:26:34;24.80;30.10
10123;DHT22;5101;49.038;8.710;2022-08-07T19:29:03;24.70;29.80
10123;DHT22;5101;49.038;8.710;2022-08-07T19:31:35;24.70;29.90